Time;durP1;ratioP1;P1;durP2;ratioP2;P2;SDS_P1;SDS_P2;PMS_P1;PMS_P2;Temp;Humidity;BMP_temperature;BMP_pressure;BME280_temperature;BME280_humidity;BME280_pressure;Samples;Min_cycle;Max_cycle;Signal;HPM_P1;HPM_P2
2023/03/22 00:00:06;;;;;;;18.47;14.77;;;9.50;99.90;;;;;;4932416;29;20235;-59
2023/03/22 00:02:34;;;;;;;19.10;14.77;;;9.50;99.90;;;;;;4929619;29;20284;-59
2023/03/22 00:05:02;;;;;;;21.37;16.67;;;9.50;99.90;;;;;;4920627;29;20226;-60
2023/03/22 00:07:33;;;;;;;18.27;15.30;;;9.50;99.90;;;;;;4920456;29;20239;-59
2023/03/22 00:10:01;;;;;;;18.70;16.10;;;9.50;99.90;;;;;;4919967;29;20636;-59
2023/03/22 00:12:30;;;;;;;18.70;16.43;;;9.40;99.90;;;;;;4923817;29;20323;-59
2023/03/22 00:14:58;;;;;;;19.53;16.80;;;9.40;99.90;;;;;;4938176;29;20266;-59
2023/03/22 00:17:27;;;;;;;20.23;16.93;;;9.40;99.90;;;;;;4938232;29;20577;-59
2023/03/22 00:19:55;;;;;;;22.57;17.47;;;9.40;99.90;;;;;;4927209;29;20775;-59
2023/03/22 00:22:24;;;;;;;19.57;15.97;;;9.40;99.90;;;;;;4922418;29;20237;-59
2023/03/22 00:24:54;;;;;;;20.00;15.53;;;9.50;99.90;;;;;;4937844;29;20656;-59
2023/03/22 00:27:22;;;;;;;19.30;16.53;;;9.50;99.90;;;;;;4938236;29;20232;-59
2023/03/22 00:29:52;;;;;;;19.27;16.73;;;9.50;99.90;;;;;;4933847;29;20308;-59
2023/03/22 00:32:20;;;;;;;18.97;16.93;;;9.40;99.90;;;;;;4935844;29;20251;-59
2023/03/22 00:34:50;;;;;;;21.77;16.97;;;9.50;99.90;;;;;;4929797;29;20277;-59
2023/03/22 00:37:18;;;;;;;20.30;17.87;;;9.50;99.90;;;;;;4937753;29;20232;-59
2023/03/22 00:39:46;;;;;;;20.20;17.57;;;9.50;99.90;;;;;;4937672;28;20220;-59
2023/03/22 00:42:17;;;;;;;22.10;16.70;;;9.50;99.90;;;;;;4936023;29;20657;-59
2023/03/22 00:44:48;;;;;;;18.87;16.77;;;9.50;99.90;;;;;;4925266;29;20303;-59
2023/03/22 00:47:16;;;;;;;19.60;17.33;;;9.50;99.90;;;;;;4918689;29;20231;-59
2023/03/22 00:49:44;;;;;;;21.87;17.30;;;9.60;99.90;;;;;;4920470;29;20599;-59
2023/03/22 00:52:13;;;;;;;19.70;17.43;;;9.60;99.90;;;;;;4936362;29;20260;-58
2023/03/22 00:54:41;;;;;;;21.47;17.83;;;9.60;99.90;;;;;;4917078;29;20652;-59
2023/03/22 00:57:09;;;;;;;21.93;18.37;;;9.70;99.90;;;;;;4918019;29;20231;-59
2023/03/22 00:59:39;;;;;;;21.00;18.23;;;9.70;99.90;;;;;;4920836;29;20232;-59
2023/03/22 01:02:08;;;;;;;20.83;18.47;;;9.60;99.90;;;;;;4938358;29;20494;-59
2023/03/22 01:04:36;;;;;;;23.33;19.33;;;9.60;99.90;;;;;;4927922;29;20239;-59
2023/03/22 01:07:06;;;;;;;20.90;18.33;;;9.60;99.90;;;;;;4937054;29;20225;-59
2023/03/22 01:09:36;;;;;;;21.27;18.53;;;9.60;99.90;;;;;;4935898;29;20710;-59
2023/03/22 01:12:04;;;;;;;21.57;19.23;;;9.60;99.90;;;;;;4935628;29;20319;-59
2023/03/22 01:14:33;;;;;;;24.87;20.03;;;9.70;99.90;;;;;;4935556;29;20711;-59
2023/03/22 01:17:02;;;;;;;22.77;19.83;;;9.60;99.90;;;;;;4935658;29;20331;-58
2023/03/22 01:19:31;;;;;;;23.20;19.53;;;9.60;99.90;;;;;;4927971;29;20216;-59
2023/03/22 01:21:59;;;;;;;23.60;19.40;;;9.60;99.90;;;;;;4917450;29;20357;-59
2023/03/22 01:24:27;;;;;;;22.97;19.87;;;9.60;99.90;;;;;;4934125;29;20232;-59
2023/03/22 01:26:56;;;;;;;24.17;19.90;;;9.60;99.90;;;;;;4935474;29;20337;-59
2023/03/22 01:29:24;;;;;;;24.57;20.87;;;9.50;99.90;;;;;;4934902;29;20623;-59
2023/03/22 01:31:52;;;;;;;21.93;19.60;;;9.50;99.90;;;;;;4949471;29;20226;-59
2023/03/22 01:34:22;;;;;;;25.73;20.27;;;9.50;99.90;;;;;;4928603;29;20555;-59
2023/03/22 01:36:50;;;;;;;26.20;20.70;;;9.50;99.90;;;;;;4935476;29;20304;-59
2023/03/22 01:39:19;;;;;;;22.80;20.03;;;9.50;99.90;;;;;;4935432;29;20319;-59
2023/03/22 01:41:50;;;;;;;23.67;20.70;;;9.40;99.90;;;;;;4935344;29;20234;-59
2023/03/22 01:44:21;;;;;;;25.30;20.20;;;9.40;99.90;;;;;;4936295;29;20222;-59
2023/03/22 01:46:52;;;;;;;23.53;20.63;;;9.40;99.90;;;;;;4935426;29;20292;-59
2023/03/22 01:49:26;;;;;;;24.40;20.23;;;9.40;99.90;;;;;;4926326;29;20257;-59
2023/03/22 01:51:57;;;;;;;21.00;17.97;;;9.30;99.90;;;;;;4917233;29;20225;-58
2023/03/22 01:54:48;;;;;;;24.23;19.70;;;9.40;99.90;;;;;;4915964;29;20771;-59
2023/03/22 01:57:38;;;;;;;23.87;19.37;;;9.40;99.90;;;;;;4917076;29;20714;-59
2023/03/22 02:00:17;;;;;;;22.97;19.67;;;9.40;99.90;;;;;;4934994;29;20267;-60
2023/03/22 02:05:57;;;;;;;22.53;19.50;;;9.50;99.90;;;;;;4895641;29;20262;-56
2023/03/22 02:08:26;;;;;;;21.63;18.73;;;9.40;99.90;;;;;;4917511;29;20231;-57
2023/03/22 02:11:14;;;;;;;23.80;18.97;;;9.40;99.90;;;;;;4893889;29;20313;-57
2023/03/22 02:14:15;;;;;;;22.77;19.53;;;9.40;99.90;;;;;;4894553;29;20230;-57
2023/03/22 02:17:30;;;;;;;21.73;19.33;;;9.30;99.90;;;;;;4894490;29;20225;-58
2023/03/22 02:20:38;;;;;;;24.23;19.37;;;9.40;99.90;;;;;;4913034;29;20222;-57
2023/03/22 02:23:34;;;;;;;22.57;19.40;;;9.40;99.90;;;;;;4912725;29;20728;-57
2023/03/22 02:26:42;;;;;;;21.60;19.23;;;9.40;99.90;;;;;;4913628;29;20788;-58
2023/03/22 02:29:18;;;;;;;25.00;18.70;;;9.40;99.90;;;;;;4898201;29;20243;-57
2023/03/22 02:32:11;;;;;;;24.73;19.90;;;9.40;99.90;;;;;;4914224;29;20692;-57
2023/03/22 02:35:09;;;;;;;25.07;20.30;;;9.40;99.90;;;;;;4916089;29;20835;-57
2023/03/22 02:37:56;;;;;;;24.07;19.73;;;9.40;99.90;;;;;;4866845;29;20230;-57
2023/03/22 02:40:31;;;;;;;21.70;19.27;;;9.40;99.90;;;;;;4895621;29;20241;-56
2023/03/22 02:43:09;;;;;;;24.27;19.37;;;9.40;99.90;;;;;;4914005;29;20598;-58
2023/03/22 02:45:44;;;;;;;21.97;19.37;;;9.40;99.90;;;;;;4912769;29;20241;-58
2023/03/22 02:48:17;;;;;;;22.63;18.83;;;9.40;99.90;;;;;;4917261;29;20579;-58
2023/03/22 02:50:51;;;;;;;21.90;18.53;;;9.40;99.90;;;;;;4923268;29;20230;-57
2023/03/22 02:53:24;;;;;;;21.13;17.27;;;9.40;99.90;;;;;;4925332;29;20293;-58
2023/03/22 02:55:58;;;;;;;20.73;18.00;;;9.40;99.90;;;;;;4913081;29;20225;-57
2023/03/22 02:58:29;;;;;;;25.30;18.10;;;9.40;99.90;;;;;;4913777;29;20290;-56
2023/03/22 03:01:04;;;;;;;23.50;18.30;;;9.40;99.90;;;;;;4912359;29;20274;-56
2023/03/22 03:03:38;;;;;;;23.37;19.40;;;9.40;99.90;;;;;;4920223;29;20291;-58
2023/03/22 03:06:13;;;;;;;20.40;18.20;;;9.40;99.90;;;;;;4896737;29;20238;-57
2023/03/22 03:08:42;;;;;;;22.77;18.83;;;9.50;99.90;;;;;;4893471;29;20806;-55
2023/03/22 03:11:12;;;;;;;23.17;18.77;;;9.50;99.90;;;;;;4893265;29;20702;-57
2023/03/22 03:13:40;;;;;;;20.97;17.67;;;9.50;99.90;;;;;;4893173;29;20301;-56
2023/03/22 03:16:16;;;;;;;21.73;18.13;;;9.50;99.90;;;;;;4893408;29;20236;-57
2023/03/22 03:18:51;;;;;;;20.70;17.77;;;9.60;99.90;;;;;;4911097;29;20227;-56
2023/03/22 03:21:31;;;;;;;21.13;17.67;;;9.60;99.90;;;;;;4898236;29;20230;-57
2023/03/22 03:24:17;;;;;;;21.20;18.70;;;9.50;99.90;;;;;;4912101;29;20266;-57
2023/03/22 03:26:55;;;;;;;20.17;17.57;;;9.50;99.90;;;;;;4912766;29;20323;-57
2023/03/22 03:29:33;;;;;;;20.87;18.23;;;9.60;99.90;;;;;;4891925;29;20221;-56
2023/03/22 03:32:06;;;;;;;20.87;17.60;;;9.50;99.90;;;;;;4907423;29;20297;-58
2023/03/22 03:34:42;;;;;;;20.30;17.83;;;9.60;99.90;;;;;;4921754;29;20238;-57
2023/03/22 03:37:14;;;;;;;21.27;17.47;;;9.60;99.90;;;;;;4916584;29;20244;-58
2023/03/22 03:39:47;;;;;;;21.33;17.53;;;9.60;99.90;;;;;;4916461;29;20246;-57
2023/03/22 03:42:18;;;;;;;23.43;18.60;;;9.60;99.90;;;;;;4901312;29;20718;-57
2023/03/22 03:44:46;;;;;;;22.40;18.37;;;9.60;99.90;;;;;;4907904;29;20251;-58
2023/03/22 03:47:15;;;;;;;21.33;16.73;;;9.60;99.90;;;;;;4915350;29;20230;-57
2023/03/22 03:49:45;;;;;;;19.50;15.97;;;9.60;99.90;;;;;;4924402;29;20274;-57
2023/03/22 03:52:14;;;;;;;19.80;17.03;;;9.60;99.90;;;;;;4920591;29;20321;-57
2023/03/22 03:54:42;;;;;;;18.37;15.47;;;9.60;99.90;;;;;;4915747;29;20320;-58
2023/03/22 03:57:15;;;;;;;19.20;17.00;;;9.60;99.90;;;;;;4898810;29;20237;-57
2023/03/22 03:59:44;;;;;;;17.80;15.67;;;9.60;99.90;;;;;;4898747;29;20242;-57
2023/03/22 04:02:24;;;;;;;20.37;16.63;;;9.60;99.90;;;;;;4911702;29;20231;-56
2023/03/22 04:04:54;;;;;;;18.67;16.37;;;9.60;99.90;;;;;;4922269;29;20345;-58
2023/03/22 04:07:22;;;;;;;21.37;16.20;;;9.70;99.90;;;;;;4915219;29;20609;-58
2023/03/22 04:09:50;;;;;;;19.70;15.70;;;9.70;99.90;;;;;;4916067;29;20234;-58
2023/03/22 04:12:28;;;;;;;18.93;15.77;;;9.60;99.90;;;;;;4914052;29;20254;-56
2023/03/22 04:15:12;;;;;;;19.70;16.43;;;9.70;99.90;;;;;;4930291;29;20256;-57
2023/03/22 04:17:42;;;;;;;20.43;16.50;;;9.60;99.90;;;;;;4930769;29;20242;-56
2023/03/22 04:20:12;;;;;;;19.73;15.90;;;9.60;99.90;;;;;;4905705;29;20321;-55
2023/03/22 04:22:41;;;;;;;18.63;16.00;;;9.60;99.90;;;;;;4898317;29;20238;-57
2023/03/22 04:25:11;;;;;;;19.97;15.60;;;9.60;99.90;;;;;;4896487;29;20304;-58
2023/03/22 04:27:49;;;;;;;18.73;15.37;;;9.60;99.90;;;;;;4895424;29;20239;-57
2023/03/22 04:30:21;;;;;;;18.90;16.00;;;9.60;99.90;;;;;;4905037;29;20218;-57
2023/03/22 04:33:05;;;;;;;18.10;15.17;;;9.50;99.90;;;;;;4923029;29;20229;-58
2023/03/22 04:35:57;;;;;;;19.50;15.97;;;9.60;99.90;;;;;;4919159;29;20236;-57
2023/03/22 04:38:33;;;;;;;21.60;15.90;;;9.50;99.90;;;;;;4917580;29;20269;-57
2023/03/22 04:41:01;;;;;;;19.93;16.53;;;9.50;99.90;;;;;;4912974;29;20242;-57
2023/03/22 04:43:38;;;;;;;18.97;14.90;;;9.50;99.90;;;;;;4916603;29;20234;-58
2023/03/22 04:46:11;;;;;;;20.50;14.93;;;9.50;99.90;;;;;;4913869;29;20240;-58
2023/03/22 04:48:47;;;;;;;17.77;15.20;;;9.50;99.90;;;;;;4906743;29;20229;-58
2023/03/22 04:51:16;;;;;;;19.03;15.80;;;9.50;99.90;;;;;;4921035;29;20286;-57
2023/03/22 04:54:02;;;;;;;17.90;14.80;;;9.50;99.90;;;;;;4898316;29;20267;-57
2023/03/22 04:56:30;;;;;;;21.07;15.27;;;9.50;99.90;;;;;;4897031;29;20235;-57
2023/03/22 04:58:58;;;;;;;17.17;14.47;;;9.60;99.90;;;;;;4914060;29;20257;-58
2023/03/22 05:01:29;;;;;;;17.77;14.20;;;9.60;99.90;;;;;;4913995;29;20232;-57
2023/03/22 05:04:08;;;;;;;16.90;14.43;;;9.60;99.90;;;;;;4905945;29;20251;-57
2023/03/22 05:06:37;;;;;;;19.03;14.50;;;9.60;99.90;;;;;;4914592;29;20235;-58
2023/03/22 05:09:12;;;;;;;15.87;13.93;;;9.60;99.90;;;;;;4914420;29;20230;-56
2023/03/22 05:11:40;;;;;;;22.47;14.97;;;9.60;99.90;;;;;;4914574;29;20226;-57
2023/03/22 05:14:28;;;;;;;19.07;14.63;;;9.50;99.90;;;;;;4897044;29;20243;-58
2023/03/22 05:16:58;;;;;;;16.73;14.57;;;9.50;99.90;;;;;;4913887;29;20238;-57
2023/03/22 05:19:26;;;;;;;21.87;16.10;;;9.60;99.90;;;;;;4921381;29;20241;-56
2023/03/22 05:21:56;;;;;;;20.27;15.53;;;9.50;99.90;;;;;;4904911;29;20226;-58
2023/03/22 05:24:36;;;;;;;20.73;15.00;;;9.70;99.90;;;;;;4898132;29;20229;-56
2023/03/22 05:27:05;;;;;;;17.63;14.10;;;9.60;99.90;;;;;;4913016;29;20244;-58
2023/03/22 05:29:35;;;;;;;18.33;14.40;;;9.60;99.90;;;;;;4896643;29;20230;-57
2023/03/22 05:32:17;;;;;;;19.23;15.30;;;9.60;99.90;;;;;;4904086;29;20263;-57
2023/03/22 05:34:47;;;;;;;17.10;13.50;;;9.60;99.90;;;;;;4913748;29;20258;-57
2023/03/22 05:37:24;;;;;;;18.53;13.93;;;9.60;99.90;;;;;;4897717;29;20262;-57
2023/03/22 05:39:55;;;;;;;18.03;14.00;;;9.50;99.90;;;;;;4880303;29;20700;-57
2023/03/22 05:42:31;;;;;;;18.37;15.43;;;9.70;99.90;;;;;;4895319;29;20232;-58
2023/03/22 05:45:01;;;;;;;18.20;14.67;;;9.60;99.90;;;;;;4906532;29;20230;-57
2023/03/22 05:47:32;;;;;;;19.47;14.27;;;9.60;99.90;;;;;;4908823;29;20331;-57
2023/03/22 05:50:12;;;;;;;17.93;13.87;;;9.60;99.90;;;;;;4921257;29;20235;-57
2023/03/22 05:52:41;;;;;;;16.30;13.67;;;9.60;99.90;;;;;;4910770;29;20258;-57
2023/03/22 05:55:29;;;;;;;16.67;13.27;;;9.70;99.90;;;;;;4905446;29;20255;-57
2023/03/22 05:58:00;;;;;;;18.37;13.30;;;9.70;99.90;;;;;;4909490;29;20280;-57
2023/03/22 06:00:30;;;;;;;18.53;13.00;;;9.70;99.90;;;;;;4894577;29;20234;-57
2023/03/22 06:03:18;;;;;;;17.27;13.27;;;9.70;99.90;;;;;;4921860;29;20229;-56
2023/03/22 06:05:54;;;;;;;18.07;12.97;;;9.70;99.90;;;;;;4898011;29;20242;-57
2023/03/22 06:08:34;;;;;;;16.80;12.30;;;9.70;99.90;;;;;;4908284;29;20230;-57
2023/03/22 06:11:02;;;;;;;15.90;11.77;;;9.70;99.90;;;;;;4894088;29;20239;-57
2023/03/22 06:13:31;;;;;;;13.43;11.03;;;9.80;99.90;;;;;;4882727;29;20240;-57
2023/03/22 06:15:59;;;;;;;15.00;11.27;;;9.90;99.90;;;;;;4903200;29;20234;-57
2023/03/22 06:18:29;;;;;;;13.67;12.00;;;10.00;99.90;;;;;;4901330;29;20272;-57
2023/03/22 06:21:04;;;;;;;12.03;10.73;;;10.00;99.90;;;;;;4903701;29;20223;-57
2023/03/22 06:23:32;;;;;;;14.50;11.40;;;10.10;99.90;;;;;;4901804;29;20274;-57
2023/03/22 06:26:00;;;;;;;14.83;10.83;;;10.10;99.90;;;;;;4901745;29;20689;-57
2023/03/22 06:28:30;;;;;;;12.73;10.13;;;10.10;99.90;;;;;;4886330;29;20297;-57
2023/03/22 06:31:06;;;;;;;15.47;10.20;;;10.10;99.90;;;;;;4901527;29;20243;-56
2023/03/22 06:33:44;;;;;;;15.23;10.93;;;10.10;99.90;;;;;;4896811;29;20234;-56
2023/03/22 06:36:34;;;;;;;16.90;10.53;;;10.20;99.90;;;;;;4909572;29;20353;-58
2023/03/22 06:39:09;;;;;;;14.13;10.23;;;10.20;99.90;;;;;;4900783;29;20231;-57
2023/03/22 06:41:37;;;;;;;14.20;10.20;;;10.20;99.90;;;;;;4894013;29;20236;-55
2023/03/22 06:44:06;;;;;;;14.43;10.20;;;10.20;99.90;;;;;;4904358;29;20294;-57
2023/03/22 06:46:52;;;;;;;16.43;10.07;;;10.20;99.90;;;;;;4901376;29;20247;-57
2023/03/22 06:49:42;;;;;;;14.03;9.60;;;10.20;99.90;;;;;;4886829;29;20247;-57
2023/03/22 06:52:16;;;;;;;12.43;9.47;;;10.20;99.90;;;;;;4902711;29;20286;-56
2023/03/22 06:54:44;;;;;;;12.73;9.57;;;10.30;99.90;;;;;;4906663;29;20232;-56
2023/03/22 06:57:12;;;;;;;15.07;10.67;;;10.30;99.90;;;;;;4913776;29;20242;-57
2023/03/22 06:59:40;;;;;;;13.80;10.10;;;10.40;99.90;;;;;;4913433;29;20235;-57
2023/03/22 07:02:12;;;;;;;16.90;11.17;;;10.40;99.90;;;;;;4913211;29;20235;-57
2023/03/22 07:04:45;;;;;;;16.63;11.30;;;10.40;99.90;;;;;;4917986;29;20747;-57
2023/03/22 07:07:14;;;;;;;14.90;11.30;;;10.40;99.90;;;;;;4898354;29;20231;-57
2023/03/22 07:09:42;;;;;;;16.63;11.43;;;10.40;99.90;;;;;;4877580;29;20232;-55
2023/03/22 07:12:10;;;;;;;14.97;12.30;;;10.40;99.90;;;;;;4917227;29;20297;-58
2023/03/22 07:14:38;;;;;;;17.47;11.93;;;10.40;99.90;;;;;;4905687;29;20299;-55
2023/03/22 07:17:27;;;;;;;13.63;11.23;;;10.40;99.90;;;;;;4906062;29;20223;-57
2023/03/22 07:19:57;;;;;;;18.13;12.27;;;10.50;99.90;;;;;;4906248;29;20233;-56
2023/03/22 07:22:26;;;;;;;16.97;12.07;;;10.50;99.90;;;;;;4909339;29;20254;-57
2023/03/22 07:24:55;;;;;;;16.67;11.53;;;10.60;99.90;;;;;;4895903;29;20664;-57
2023/03/22 07:27:29;;;;;;;15.60;11.90;;;10.60;99.90;;;;;;4905443;29;20289;-57
2023/03/22 07:29:57;;;;;;;16.83;12.10;;;10.60;99.90;;;;;;4896589;29;20238;-57
2023/03/22 07:32:25;;;;;;;13.97;12.13;;;10.60;99.90;;;;;;4905701;29;20237;-57
2023/03/22 07:35:08;;;;;;;15.80;13.13;;;10.70;99.90;;;;;;4906267;29;20235;-58
2023/03/22 07:37:37;;;;;;;16.87;12.17;;;10.70;99.90;;;;;;4911391;29;20778;-57
2023/03/22 07:40:11;;;;;;;17.07;11.93;;;10.70;99.90;;;;;;4911964;29;20230;-57
2023/03/22 07:42:39;;;;;;;16.20;13.03;;;10.70;99.90;;;;;;4907600;29;20231;-57
2023/03/22 07:45:22;;;;;;;14.30;11.80;;;10.70;99.90;;;;;;4879913;29;20227;-57
2023/03/22 07:48:14;;;;;;;14.47;12.20;;;10.70;99.90;;;;;;4914799;29;20230;-58
2023/03/22 07:51:02;;;;;;;14.77;12.60;;;10.80;99.90;;;;;;4925221;29;20236;-58
2023/03/22 07:53:30;;;;;;;17.87;12.33;;;10.90;99.90;;;;;;4916467;29;20263;-57
2023/03/22 07:55:59;;;;;;;16.30;12.70;;;10.90;99.90;;;;;;4917980;29;20780;-57
2023/03/22 07:58:27;;;;;;;17.83;13.23;;;10.90;99.90;;;;;;4926963;29;20303;-56
2023/03/22 08:00:59;;;;;;;15.90;12.80;;;11.00;99.90;;;;;;4930652;29;20249;-56
2023/03/22 08:03:56;;;;;;;16.43;12.73;;;11.00;99.90;;;;;;4911567;29;20252;-57
2023/03/22 08:06:45;;;;;;;18.23;13.13;;;11.10;99.90;;;;;;4931437;29;20266;-58
2023/03/22 08:09:13;;;;;;;16.37;11.93;;;11.20;99.90;;;;;;4932304;29;20243;-57
2023/03/22 08:11:41;;;;;;;15.87;12.37;;;11.30;99.90;;;;;;4920895;29;20221;-58
2023/03/22 08:14:10;;;;;;;16.80;11.27;;;11.40;99.90;;;;;;4890822;29;20302;-57
2023/03/22 08:16:40;;;;;;;13.53;11.43;;;11.50;99.90;;;;;;4913049;29;20262;-56
2023/03/22 08:19:08;;;;;;;14.67;12.03;;;11.70;99.90;;;;;;4911363;29;20223;-58
2023/03/22 08:21:37;;;;;;;15.93;12.30;;;11.80;99.90;;;;;;4911629;29;20262;-57
2023/03/22 08:24:11;;;;;;;14.87;11.40;;;11.80;99.90;;;;;;4916388;29;20246;-57
2023/03/22 08:26:50;;;;;;;12.93;10.73;;;11.90;99.90;;;;;;4932601;29;20235;-58
2023/03/22 08:29:29;;;;;;;17.10;10.93;;;11.90;99.90;;;;;;4916421;29;20237;-57
2023/03/22 08:32:00;;;;;;;14.43;11.23;;;11.90;99.90;;;;;;4911204;29;20286;-57
2023/03/22 08:34:30;;;;;;;12.70;10.30;;;11.90;99.90;;;;;;4908427;29;20238;-57
2023/03/22 08:36:58;;;;;;;13.67;10.40;;;12.00;99.90;;;;;;4916281;29;20296;-57
2023/03/22 08:39:27;;;;;;;14.07;9.73;;;12.20;99.90;;;;;;4932517;29;20737;-55
2023/03/22 08:42:07;;;;;;;12.03;9.10;;;12.30;99.90;;;;;;4912489;29;20681;-58
2023/03/22 08:44:36;;;;;;;14.37;9.77;;;12.50;99.90;;;;;;4898213;29;20259;-58
2023/03/22 08:47:05;;;;;;;11.13;9.23;;;12.60;99.90;;;;;;4893701;29;20713;-58
2023/03/22 08:49:34;;;;;;;11.13;9.90;;;12.80;99.90;;;;;;4914316;29;20288;-57
2023/03/22 08:52:10;;;;;;;10.80;8.70;;;12.90;99.90;;;;;;4911920;29;20242;-58
2023/03/22 08:54:58;;;;;;;11.10;8.73;;;13.10;99.90;;;;;;4910624;29;20236;-58
2023/03/22 08:57:49;;;;;;;11.20;8.63;;;13.40;99.90;;;;;;4912361;29;20656;-57
2023/03/22 09:00:33;;;;;;;14.37;8.47;;;13.50;99.90;;;;;;4895982;29;20245;-58
2023/03/22 09:03:33;;;;;;;12.03;8.37;;;13.80;99.90;;;;;;4894620;29;20237;-57
2023/03/22 09:06:02;;;;;;;10.73;7.30;;;13.90;99.90;;;;;;4907544;29;20266;-58
2023/03/22 09:08:35;;;;;;;10.23;7.40;;;14.00;99.90;;;;;;4922504;29;20228;-58
2023/03/22 09:11:12;;;;;;;13.40;7.83;;;13.80;99.90;;;;;;4899241;29;20742;-58
2023/03/22 09:13:43;;;;;;;9.53;7.30;;;13.60;99.90;;;;;;4888388;29;20239;-57
2023/03/22 09:16:12;;;;;;;9.17;7.00;;;13.60;99.90;;;;;;4903397;29;21165;-57
2023/03/22 09:18:43;;;;;;;10.40;6.90;;;13.70;99.90;;;;;;4911434;29;20216;-57
2023/03/22 09:21:15;;;;;;;9.17;6.93;;;13.80;99.90;;;;;;4906526;29;20567;-58
2023/03/22 09:23:51;;;;;;;10.70;6.90;;;13.80;99.90;;;;;;4898177;29;20274;-57
2023/03/22 09:26:25;;;;;;;10.67;6.47;;;13.90;99.90;;;;;;4865800;29;20233;-58
2023/03/22 09:28:55;;;;;;;9.40;6.30;;;13.80;99.90;;;;;;4890195;29;20657;-58
2023/03/22 09:31:23;;;;;;;12.67;7.20;;;13.50;99.90;;;;;;4904931;29;20288;-57
2023/03/22 09:34:02;;;;;;;10.80;6.50;;;13.50;99.90;;;;;;4909530;29;20232;-57
2023/03/22 09:36:33;;;;;;;11.30;6.67;;;13.50;99.90;;;;;;4925354;29;20217;-58
2023/03/22 09:39:05;;;;;;;9.73;6.30;;;13.30;99.90;;;;;;4910774;29;20229;-57
2023/03/22 09:41:39;;;;;;;9.30;6.10;;;13.30;99.90;;;;;;4926083;29;20240;-58
2023/03/22 09:44:13;;;;;;;12.03;6.97;;;13.30;99.90;;;;;;4909632;29;20324;-58
2023/03/22 09:46:44;;;;;;;7.40;6.27;;;13.40;99.90;;;;;;4891739;29;20229;-57
2023/03/22 09:49:17;;;;;;;13.47;6.27;;;13.40;99.90;;;;;;4916255;29;20236;-58
2023/03/22 09:51:48;;;;;;;9.73;6.07;;;13.30;99.90;;;;;;4926479;29;20318;-58
2023/03/22 09:54:20;;;;;;;9.83;5.83;;;13.30;99.90;;;;;;4929019;29;20287;-58
2023/03/22 09:56:54;;;;;;;9.27;5.50;;;13.20;99.90;;;;;;4928035;29;20259;-57
2023/03/22 09:59:33;;;;;;;9.87;6.00;;;13.10;99.90;;;;;;4930837;29;20231;-58
2023/03/22 10:02:04;;;;;;;10.30;6.00;;;13.10;99.90;;;;;;4922099;29;20231;-57
2023/03/22 10:04:49;;;;;;;8.27;5.40;;;13.30;99.90;;;;;;4914215;29;20256;-57
2023/03/22 10:07:27;;;;;;;9.07;5.60;;;13.40;99.90;;;;;;4905188;29;20243;-58
2023/03/22 10:10:06;;;;;;;9.87;5.53;;;13.40;99.90;;;;;;4908475;29;20243;-57
2023/03/22 10:12:41;;;;;;;7.87;5.13;;;13.40;99.90;;;;;;4910847;29;20240;-58
2023/03/22 10:15:14;;;;;;;7.80;4.83;;;13.60;99.90;;;;;;4894657;29;20240;-57
2023/03/22 10:17:46;;;;;;;9.70;5.23;;;13.70;99.90;;;;;;4904654;29;20233;-56
2023/03/22 10:20:24;;;;;;;8.37;4.97;;;13.80;99.90;;;;;;4904353;29;20716;-57
2023/03/22 10:22:55;;;;;;;9.43;5.03;;;13.90;99.90;;;;;;4902418;29;20228;-57
2023/03/22 10:25:31;;;;;;;8.90;5.43;;;13.90;99.90;;;;;;4911255;29;20232;-58
2023/03/22 10:28:01;;;;;;;8.67;4.87;;;14.00;99.90;;;;;;4913042;29;20233;-57
2023/03/22 10:30:36;;;;;;;5.90;4.80;;;13.90;99.90;;;;;;4908200;29;20232;-57
2023/03/22 10:33:14;;;;;;;9.60;4.73;;;13.80;99.90;;;;;;4917742;29;20225;-58
2023/03/22 10:35:43;;;;;;;12.63;4.73;;;13.80;99.90;;;;;;4925199;29;20258;-58
2023/03/22 10:38:20;;;;;;;10.47;5.17;;;13.80;99.90;;;;;;4912404;29;20232;-57
2023/03/22 10:40:50;;;;;;;8.93;4.33;;;13.80;99.90;;;;;;4906359;29;20669;-58
2023/03/22 10:43:23;;;;;;;6.20;4.43;;;13.80;99.90;;;;;;4898859;29;20249;-58
2023/03/22 10:45:53;;;;;;;6.37;4.60;;;14.00;99.90;;;;;;4894021;29;20230;-56
2023/03/22 10:48:27;;;;;;;11.73;4.67;;;14.40;99.90;;;;;;4895381;29;20712;-59
2023/03/22 10:50:57;;;;;;;5.90;4.23;;;14.60;99.90;;;;;;4907357;29;20233;-58
2023/03/22 10:53:32;;;;;;;7.13;4.13;;;14.60;99.90;;;;;;4903429;29;20226;-57
2023/03/22 10:56:00;;;;;;;7.47;3.90;;;14.40;99.90;;;;;;4888308;29;20278;-58
2023/03/22 10:58:32;;;;;;;10.03;4.10;;;14.20;99.90;;;;;;4888083;29;20238;-57
2023/03/22 11:01:05;;;;;;;5.40;3.83;;;14.20;99.90;;;;;;4887535;29;20275;-56
2023/03/22 11:03:39;;;;;;;6.07;3.97;;;14.10;99.90;;;;;;4913712;29;20293;-58
2023/03/22 11:06:09;;;;;;;7.33;3.67;;;14.10;99.90;;;;;;4907643;29;20243;-57
2023/03/22 11:08:44;;;;;;;6.37;3.40;;;14.20;99.90;;;;;;4913484;29;20233;-56
2023/03/22 11:11:22;;;;;;;8.50;3.70;;;14.10;99.90;;;;;;4907466;29;20748;-57
2023/03/22 11:13:56;;;;;;;5.27;3.40;;;14.00;99.90;;;;;;4916923;29;20256;-57
2023/03/22 11:16:24;;;;;;;7.63;3.43;;;13.90;99.90;;;;;;4894742;29;20298;-56
2023/03/22 11:18:52;;;;;;;7.23;3.50;;;13.70;99.90;;;;;;4902758;29;20235;-57
2023/03/22 11:21:24;;;;;;;6.40;3.00;;;13.70;99.90;;;;;;4927460;29;20232;-57
2023/03/22 11:23:57;;;;;;;7.37;3.70;;;13.70;99.90;;;;;;4928809;29;20223;-57
2023/03/22 11:26:32;;;;;;;6.00;3.30;;;13.70;99.90;;;;;;4913758;29;20261;-57
2023/03/22 11:29:13;;;;;;;6.53;3.60;;;13.80;99.90;;;;;;4908894;29;20348;-57
2023/03/22 11:31:56;;;;;;;6.53;3.43;;;13.80;99.90;;;;;;4909968;29;20229;-58
2023/03/22 11:34:27;;;;;;;9.23;3.97;;;13.80;99.90;;;;;;4920637;29;20284;-57
2023/03/22 11:36:56;;;;;;;6.17;3.20;;;13.80;99.90;;;;;;4924903;29;20684;-58
2023/03/22 11:39:27;;;;;;;4.97;3.13;;;13.80;99.90;;;;;;4908836;29;20212;-57
2023/03/22 11:42:00;;;;;;;6.70;3.63;;;13.80;99.90;;;;;;4897284;29;20234;-58
2023/03/22 11:44:34;;;;;;;7.27;3.07;;;13.90;99.90;;;;;;4899574;29;20290;-57
2023/03/22 11:47:07;;;;;;;5.70;2.87;;;13.80;99.90;;;;;;4890873;29;20676;-57
2023/03/22 11:49:42;;;;;;;6.77;3.30;;;13.80;99.90;;;;;;4888206;29;20240;-58
2023/03/22 11:52:15;;;;;;;8.43;3.40;;;13.90;99.90;;;;;;4889881;29;20229;-57
2023/03/22 11:54:46;;;;;;;3.50;3.00;;;13.90;99.90;;;;;;4909463;29;20226;-56
2023/03/22 11:57:17;;;;;;;6.47;2.90;;;14.00;99.90;;;;;;4894131;29;20315;-58
2023/03/22 11:59:53;;;;;;;9.47;2.73;;;13.80;99.90;;;;;;4894242;29;20765;-57
2023/03/22 12:02:25;;;;;;;6.17;2.40;;;13.80;99.90;;;;;;4906050;29;20241;-58
2023/03/22 12:05:00;;;;;;;5.47;2.33;;;13.80;99.90;;;;;;4914798;29;20243;-58
2023/03/22 12:07:30;;;;;;;6.30;2.13;;;13.70;99.90;;;;;;4892996;29;20272;-57
2023/03/22 12:10:02;;;;;;;5.20;2.43;;;13.60;99.90;;;;;;4900870;29;20243;-57
2023/03/22 12:12:34;;;;;;;5.07;2.07;;;13.60;99.90;;;;;;4904370;29;20241;-58
2023/03/22 12:15:05;;;;;;;6.97;2.27;;;13.60;99.90;;;;;;4907352;29;20224;-57
2023/03/22 12:17:38;;;;;;;7.63;2.50;;;13.60;99.90;;;;;;4905757;29;20257;-57
2023/03/22 12:20:20;;;;;;;5.70;2.73;;;13.60;99.90;;;;;;4896972;29;20784;-57
2023/03/22 12:22:52;;;;;;;6.20;2.20;;;13.50;99.90;;;;;;4901790;29;20236;-57
2023/03/22 12:25:23;;;;;;;7.30;2.20;;;13.50;99.90;;;;;;4900968;29;20236;-58
2023/03/22 12:27:54;;;;;;;6.40;2.10;;;13.30;99.90;;;;;;4902887;29;20591;-57
2023/03/22 12:30:26;;;;;;;6.03;2.80;;;13.10;99.90;;;;;;4902091;29;20240;-58
2023/03/22 12:33:02;;;;;;;5.23;2.20;;;13.00;99.90;;;;;;4899833;29;20233;-57
2023/03/22 12:35:33;;;;;;;5.83;2.50;;;12.90;99.90;;;;;;4900416;29;20239;-58
2023/03/22 12:38:10;;;;;;;7.63;2.27;;;12.80;99.90;;;;;;4915847;29;20229;-57
2023/03/22 12:40:41;;;;;;;7.10;2.50;;;12.70;99.90;;;;;;4900022;29;20233;-51
2023/03/22 12:43:15;;;;;;;6.57;2.50;;;12.60;99.90;;;;;;4899609;29;20236;-57
2023/03/22 12:45:52;;;;;;;7.73;2.50;;;12.50;99.90;;;;;;4907909;29;20222;-57
2023/03/22 12:48:25;;;;;;;5.47;2.20;;;12.50;99.90;;;;;;4904585;29;20248;-58
2023/03/22 12:50:58;;;;;;;4.67;2.20;;;12.40;99.90;;;;;;4900173;29;20249;-58
2023/03/22 12:53:32;;;;;;;4.70;2.20;;;12.30;99.90;;;;;;4901362;29;20233;-55
2023/03/22 12:56:01;;;;;;;6.57;3.03;;;12.30;99.90;;;;;;4907786;29;20239;-58
2023/03/22 12:58:29;;;;;;;7.20;2.50;;;12.30;99.90;;;;;;4921950;29;20221;-57
2023/03/22 13:01:06;;;;;;;5.57;2.50;;;12.30;99.90;;;;;;4897799;29;20303;-56
2023/03/22 13:03:39;;;;;;;5.10;2.50;;;12.30;99.90;;;;;;4905427;29;20229;-57
2023/03/22 13:06:54;;;;;;;5.13;2.53;;;12.30;99.90;;;;;;4905347;29;20228;-58
2023/03/22 13:09:39;;;;;;;6.23;2.30;;;12.20;99.90;;;;;;4923821;29;20236;-55
2023/03/22 13:12:28;;;;;;;7.33;2.90;;;12.20;99.90;;;;;;4898861;29;20715;-57
2023/03/22 13:15:03;;;;;;;6.20;2.70;;;12.20;99.90;;;;;;4901217;29;20735;-58